West Farm, Colorado
Current Conditions -  °F | °C
As of 11:53 AM on Friday 31 Oct 2014 (Local Time) from KLAA Reporting Station
Clear Clear  
Wind Chill: 52°   Ceiling: Unl
Heat Index: 52°   Visibility: 10mi
Dew Point: 27°   Wind: 17mph
Humidity: 38%   Direction: 140°SE
Pressure: 30.39"   Gusts: NA
Location:  37.885°N, 102.667°W
Report Text: KLAA 311753Z AUTO 14015KT 10SM CLR 11/M03 A3039 RMK AO2 SLP289 T01111028 10111 21022 58021
Loading
Personal Weather Stations






























Interactive Weather Map
Tropical Storm Tracking
New forecast layout! Learn more

10-Day Weather Forecast

Advertisements
Track Severe Weather on mobile